Time;durP1;ratioP1;P1;durP2;ratioP2;P2;SDS_P1;SDS_P2;PMS_P1;PMS_P2;Temp;Humidity;BMP_temperature;BMP_pressure;BME280_temperature;BME280_humidity;BME280_pressure;Samples;Min_cycle;Max_cycle;Signal;HPM_P1;HPM_P2
2020/12/14 00:00:20;;;;;;;9.23;2.70;;;7.60;81.60;;;;;;5014108;28;20014;-89
2020/12/14 00:02:46;;;;;;;5.10;2.03;;;7.60;81.40;;;;;;5014169;28;20017;-89
2020/12/14 00:05:12;;;;;;;5.47;2.10;;;7.70;81.30;;;;;;4996505;28;20030;-89
2020/12/14 00:07:37;;;;;;;5.00;2.40;;;7.70;81.20;;;;;;5013973;28;20025;-90
2020/12/14 00:10:04;;;;;;;5.03;2.40;;;7.70;81.00;;;;;;5013469;28;20084;-89
2020/12/14 00:12:30;;;;;;;5.53;2.00;;;7.90;80.90;;;;;;4996006;28;20483;-88
2020/12/14 00:14:56;;;;;;;6.10;2.50;;;7.80;80.60;;;;;;4996576;28;20021;-89
2020/12/14 00:17:22;;;;;;;2.58;1.83;;;7.80;80.50;;;;;;5013887;28;20057;-88
2020/12/14 00:19:48;;;;;;;6.57;2.80;;;7.90;80.50;;;;;;4995761;28;20042;-89
2020/12/14 00:22:14;;;;;;;5.90;2.28;;;7.90;80.10;;;;;;4996419;28;20052;-88
2020/12/14 00:24:40;;;;;;;4.38;2.30;;;7.80;80.10;;;;;;5013154;28;20495;-89
2020/12/14 00:27:05;;;;;;;4.22;2.05;;;7.90;80.10;;;;;;5013978;28;20028;-89
2020/12/14 00:29:31;;;;;;;6.47;2.08;;;7.90;80.00;;;;;;5013478;28;20388;-90
2020/12/14 00:31:57;;;;;;;7.82;2.60;;;7.90;79.90;;;;;;4996053;28;20026;-89
2020/12/14 00:34:23;;;;;;;4.97;2.10;;;8.00;79.70;;;;;;5013974;28;20125;-89
2020/12/14 00:36:49;;;;;;;3.97;2.20;;;8.00;79.70;;;;;;5014190;28;20037;-89
2020/12/14 00:39:15;;;;;;;5.32;1.85;;;7.90;79.60;;;;;;5013309;28;20109;-89
2020/12/14 00:41:41;;;;;;;3.45;1.60;;;7.90;80.10;;;;;;4995408;28;20034;-89
2020/12/14 00:44:07;;;;;;;4.78;2.05;;;7.90;79.60;;;;;;5014153;28;20037;-88
2020/12/14 00:46:32;;;;;;;4.95;1.88;;;8.00;79.40;;;;;;5015645;28;20036;-88
2020/12/14 00:48:58;;;;;;;5.85;2.55;;;8.00;79.40;;;;;;5020166;28;20037;-88
2020/12/14 00:51:28;;;;;;;4.97;2.25;;;8.00;79.20;;;;;;5013558;28;20030;-89
2020/12/14 00:53:55;;;;;;;5.82;2.10;;;7.90;78.90;;;;;;4995318;28;20080;-89
2020/12/14 00:56:21;;;;;;;4.70;2.00;;;8.00;79.10;;;;;;5012696;28;20411;-88
2020/12/14 00:58:46;;;;;;;3.92;1.80;;;8.00;79.00;;;;;;4995145;28;20037;-88
2020/12/14 01:01:13;;;;;;;7.57;1.90;;;8.00;78.90;;;;;;4994525;28;20038;-88
2020/12/14 01:03:39;;;;;;;4.60;2.20;;;8.00;78.70;;;;;;4996690;28;20533;-89
2020/12/14 01:06:05;;;;;;;4.40;1.55;;;8.10;78.60;;;;;;5014156;28;20026;-88
2020/12/14 01:08:32;;;;;;;4.45;1.90;;;8.20;78.80;;;;;;5011896;28;20056;-88
2020/12/14 01:10:59;;;;;;;2.83;1.70;;;8.10;78.50;;;;;;5017991;28;20113;-88
2020/12/14 01:13:24;;;;;;;4.63;1.80;;;8.10;78.40;;;;;;4995307;28;20018;-88
2020/12/14 01:15:50;;;;;;;3.22;1.63;;;8.10;78.30;;;;;;5013357;28;20021;-89
2020/12/14 01:18:16;;;;;;;3.70;1.80;;;8.20;78.40;;;;;;5018299;28;20116;-89
2020/12/14 01:20:42;;;;;;;5.38;2.13;;;8.20;78.40;;;;;;5018425;28;20534;-89
2020/12/14 01:23:08;;;;;;;5.03;2.30;;;8.20;78.00;;;;;;5013036;28;20107;-89
2020/12/14 01:25:34;;;;;;;3.70;2.00;;;8.20;78.00;;;;;;5012778;28;20033;-88
2020/12/14 01:28:00;;;;;;;5.15;1.83;;;8.20;78.10;;;;;;4995326;28;20120;-88
2020/12/14 01:30:25;;;;;;;3.35;1.90;;;8.20;78.20;;;;;;5011969;28;20060;-89
2020/12/14 01:32:52;;;;;;;4.47;1.73;;;8.20;78.20;;;;;;5012599;28;20029;-87
2020/12/14 01:35:17;;;;;;;3.08;1.60;;;8.30;78.30;;;;;;4995432;28;20026;-88
2020/12/14 01:37:43;;;;;;;3.38;1.70;;;8.40;78.40;;;;;;4995730;28;20533;-88
2020/12/14 01:40:09;;;;;;;5.50;2.00;;;8.30;78.40;;;;;;5012039;28;20045;-88
2020/12/14 01:42:39;;;;;;;5.00;2.10;;;8.30;78.60;;;;;;4995618;28;20489;-88
2020/12/14 01:45:05;;;;;;;4.72;1.83;;;8.40;78.60;;;;;;5012710;28;20022;-88
2020/12/14 01:47:36;;;;;;;3.45;1.52;;;8.30;78.50;;;;;;5012963;28;20025;-88
2020/12/14 01:50:03;;;;;;;2.75;1.67;;;8.40;78.60;;;;;;5007835;28;20090;-88
2020/12/14 01:52:28;;;;;;;4.50;2.10;;;8.30;78.70;;;;;;5015620;28;20098;-88
2020/12/14 01:54:57;;;;;;;5.32;2.03;;;8.30;78.40;;;;;;5027866;28;20030;-89
2020/12/14 01:57:23;;;;;;;3.28;1.90;;;8.30;78.40;;;;;;5014553;28;20033;-89
2020/12/14 01:59:50;;;;;;;5.25;2.15;;;8.30;78.20;;;;;;5002159;28;20002;-89
2020/12/14 02:02:15;;;;;;;6.22;2.33;;;8.30;78.00;;;;;;5018896;28;20033;-89
2020/12/14 02:04:41;;;;;;;5.40;1.92;;;8.30;77.90;;;;;;5031797;28;20064;-89
2020/12/14 02:07:07;;;;;;;3.78;1.88;;;8.30;78.60;;;;;;5015051;28;20097;-90
2020/12/14 02:09:32;;;;;;;5.47;1.90;;;8.40;77.90;;;;;;4994819;28;20498;-90
2020/12/14 02:11:58;;;;;;;5.68;2.00;;;8.40;78.00;;;;;;5013624;28;20107;-89
2020/12/14 02:14:24;;;;;;;4.35;1.80;;;8.30;77.90;;;;;;4995191;28;20088;-90
2020/12/14 02:16:50;;;;;;;5.30;1.88;;;8.30;78.00;;;;;;4995170;28;20033;-90
2020/12/14 02:19:15;;;;;;;4.78;2.03;;;8.40;78.10;;;;;;5012821;28;20071;-89
2020/12/14 02:21:41;;;;;;;4.18;1.98;;;8.40;78.10;;;;;;4995640;28;20049;-90
2020/12/14 02:24:14;;;;;;;5.03;2.00;;;8.50;77.90;;;;;;4996037;28;20038;-89
2020/12/14 02:26:40;;;;;;;4.20;1.70;;;8.50;77.90;;;;;;4995095;28;20026;-89
2020/12/14 02:29:06;;;;;;;4.75;2.30;;;8.50;78.00;;;;;;4995121;28;20100;-89
2020/12/14 02:31:32;;;;;;;5.38;2.25;;;8.40;78.00;;;;;;5011941;28;20025;-89
2020/12/14 02:33:58;;;;;;;8.60;2.33;;;8.40;78.00;;;;;;4994148;28;20095;-89
2020/12/14 02:36:24;;;;;;;3.38;1.83;;;8.40;78.20;;;;;;5012502;28;20030;-89
2020/12/14 02:38:51;;;;;;;4.22;1.80;;;8.40;78.20;;;;;;4994647;28;20029;-89
2020/12/14 02:41:17;;;;;;;3.30;1.67;;;8.40;78.20;;;;;;5025520;28;20010;-89
2020/12/14 02:43:43;;;;;;;4.43;2.00;;;8.40;78.40;;;;;;5017659;28;20036;-89
2020/12/14 02:46:11;;;;;;;4.15;1.80;;;8.40;78.30;;;;;;5012126;28;20053;-89
2020/12/14 02:48:37;;;;;;;3.35;1.92;;;8.40;78.30;;;;;;5011245;28;20053;-89
2020/12/14 02:51:05;;;;;;;5.95;2.60;;;8.50;78.50;;;;;;5012106;28;20037;-89
2020/12/14 02:53:30;;;;;;;4.00;1.83;;;8.50;78.60;;;;;;4994077;28;20487;-88
2020/12/14 02:55:56;;;;;;;3.10;1.75;;;8.40;78.80;;;;;;5011140;28;20033;-88
2020/12/14 02:58:21;;;;;;;4.25;1.63;;;8.40;78.90;;;;;;5011215;28;20030;-89
2020/12/14 03:00:47;;;;;;;5.75;2.38;;;8.40;79.00;;;;;;5011750;28;20022;-89
2020/12/14 03:03:14;;;;;;;4.43;2.08;;;8.40;79.20;;;;;;4994042;28;20053;-89
2020/12/14 03:05:39;;;;;;;3.78;1.90;;;8.40;79.30;;;;;;5011727;28;20018;-90
2020/12/14 03:08:05;;;;;;;3.65;2.00;;;8.40;79.60;;;;;;5011728;28;20502;-89
2020/12/14 03:10:31;;;;;;;2.90;1.92;;;8.40;79.80;;;;;;5011762;28;20045;-90
2020/12/14 03:12:56;;;;;;;5.32;1.75;;;8.40;79.90;;;;;;5011544;28;20041;-89
2020/12/14 03:15:25;;;;;;;4.45;2.30;;;8.40;80.00;;;;;;5011528;28;20476;-91
2020/12/14 03:17:51;;;;;;;3.75;1.88;;;8.40;80.70;;;;;;4994185;28;20132;-90
2020/12/14 03:20:33;;;;;;;2.58;1.95;;;8.40;80.20;;;;;;5011678;28;20041;-91
2020/12/14 03:22:59;;;;;;;4.20;1.80;;;8.40;80.40;;;;;;5011281;28;20026;-91
2020/12/14 03:25:33;;;;;;;3.15;1.85;;;8.30;80.30;;;;;;5014584;28;20029;-90
2020/12/14 03:27:59;;;;;;;4.15;1.92;;;8.40;80.40;;;;;;5014613;28;20037;-90
2020/12/14 03:30:24;;;;;;;2.72;2.00;;;8.40;80.50;;;;;;4996929;28;20018;-88
2020/12/14 03:32:50;;;;;;;3.63;1.85;;;8.40;80.60;;;;;;4997117;28;20030;-89
2020/12/14 03:35:16;;;;;;;4.65;2.58;;;8.40;80.70;;;;;;5014796;28;20038;-89
2020/12/14 03:37:41;;;;;;;4.25;1.92;;;8.40;80.80;;;;;;5014721;28;20042;-89
2020/12/14 03:40:07;;;;;;;3.35;1.80;;;8.40;81.00;;;;;;5014649;28;20036;-89
2020/12/14 03:42:33;;;;;;;4.05;1.88;;;8.50;81.10;;;;;;5014098;28;20037;-88
2020/12/14 03:45:00;;;;;;;4.30;2.28;;;8.50;81.30;;;;;;4996442;28;20057;-88
2020/12/14 03:47:30;;;;;;;4.07;2.08;;;8.40;81.50;;;;;;5014513;28;20030;-88
2020/12/14 03:49:56;;;;;;;2.85;1.83;;;8.40;81.70;;;;;;4996663;28;20041;-87
2020/12/14 03:52:22;;;;;;;4.35;1.80;;;8.50;82.20;;;;;;5014734;28;20026;-89
2020/12/14 03:54:47;;;;;;;7.93;2.55;;;8.30;82.20;;;;;;5013896;28;20479;-88
2020/12/14 03:57:13;;;;;;;2.75;1.60;;;8.40;82.50;;;;;;5014923;28;20042;-88
2020/12/14 03:59:39;;;;;;;2.33;1.70;;;8.40;82.70;;;;;;4997581;28;20040;-88
2020/12/14 04:02:04;;;;;;;3.72;1.65;;;8.40;82.70;;;;;;5022556;28;20026;-88
2020/12/14 04:04:30;;;;;;;3.75;1.70;;;8.40;82.90;;;;;;4996720;28;20030;-89
2020/12/14 04:06:56;;;;;;;3.72;1.80;;;8.40;83.10;;;;;;4996581;28;20017;-88
2020/12/14 04:09:22;;;;;;;2.78;1.70;;;8.40;83.30;;;;;;4997595;28;20049;-89
2020/12/14 04:11:48;;;;;;;2.80;2.00;;;8.30;83.40;;;;;;5019674;28;20048;-89
2020/12/14 04:14:14;;;;;;;3.72;2.10;;;8.30;83.70;;;;;;5030816;28;20036;-90
2020/12/14 04:16:42;;;;;;;4.20;2.08;;;8.30;84.10;;;;;;5004176;28;20028;-90
2020/12/14 04:19:08;;;;;;;6.32;2.17;;;8.30;84.30;;;;;;4996907;28;20022;-90
2020/12/14 04:21:34;;;;;;;2.30;1.90;;;8.30;84.90;;;;;;4995962;28;20025;-90
2020/12/14 04:24:00;;;;;;;2.72;1.80;;;8.20;85.70;;;;;;5013776;28;20551;-90
2020/12/14 04:26:25;;;;;;;4.43;2.15;;;8.30;85.10;;;;;;5014051;28;20018;-88
2020/12/14 04:28:51;;;;;;;2.65;1.50;;;8.30;85.40;;;;;;5013258;28;20398;-89
2020/12/14 04:31:16;;;;;;;4.55;2.38;;;8.30;85.40;;;;;;5013556;28;20022;-89
2020/12/14 04:33:42;;;;;;;2.60;1.85;;;8.30;85.70;;;;;;5013067;28;20105;-89
2020/12/14 04:36:08;;;;;;;2.40;2.00;;;8.30;85.60;;;;;;4995233;28;20041;-88
2020/12/14 04:38:34;;;;;;;3.08;1.73;;;8.30;85.50;;;;;;4995771;28;20068;-89
2020/12/14 04:41:03;;;;;;;5.05;2.22;;;8.30;85.50;;;;;;5013143;28;20028;-90
2020/12/14 04:43:29;;;;;;;3.55;2.20;;;8.30;86.00;;;;;;5013238;28;20503;-88
2020/12/14 04:45:55;;;;;;;3.55;2.03;;;8.30;86.30;;;;;;4995991;28;20026;-90
2020/12/14 04:48:22;;;;;;;2.45;1.60;;;8.30;86.30;;;;;;4995879;28;20081;-91
2020/12/14 04:50:48;;;;;;;3.92;2.05;;;8.30;86.20;;;;;;5013318;28;20034;-91
2020/12/14 04:53:13;;;;;;;2.17;1.70;;;8.30;86.30;;;;;;5013311;28;20069;-90
2020/12/14 04:55:39;;;;;;;4.47;2.40;;;8.30;86.40;;;;;;5013009;28;20504;-90
2020/12/14 04:58:06;;;;;;;5.20;2.00;;;8.30;86.90;;;;;;5013730;28;20112;-90
2020/12/14 05:00:32;;;;;;;3.17;2.05;;;8.20;87.20;;;;;;5012793;28;20021;-88
2020/12/14 05:02:58;;;;;;;4.65;2.25;;;8.20;87.20;;;;;;4996343;28;20022;-89
2020/12/14 05:05:24;;;;;;;5.03;2.80;;;8.30;87.30;;;;;;5014423;28;20018;-89
2020/12/14 05:07:50;;;;;;;3.55;2.13;;;8.20;87.70;;;;;;5015335;28;20458;-89
2020/12/14 05:10:22;;;;;;;3.10;2.08;;;8.20;87.70;;;;;;5014323;28;20134;-89
2020/12/14 05:12:48;;;;;;;2.45;1.90;;;8.30;87.80;;;;;;4996724;28;20034;-89
2020/12/14 05:15:27;;;;;;;4.30;2.78;;;8.20;87.70;;;;;;4995804;28;20038;-89
2020/12/14 05:18:09;;;;;;;4.82;2.17;;;8.30;87.80;;;;;;5015911;28;20083;-88
2020/12/14 05:20:35;;;;;;;3.13;1.98;;;8.20;88.00;;;;;;5015410;28;20025;-88
2020/12/14 05:23:03;;;;;;;3.47;2.15;;;8.20;88.10;;;;;;5016932;28;20463;-88
2020/12/14 05:26:07;;;;;;;2.25;1.80;;;8.30;88.20;;;;;;5020828;28;20040;-89
2020/12/14 05:28:33;;;;;;;3.15;2.00;;;8.20;88.20;;;;;;5002331;28;20054;-89
2020/12/14 05:30:59;;;;;;;3.33;2.30;;;8.20;88.20;;;;;;5037471;28;20006;-90
2020/12/14 05:33:27;;;;;;;3.08;1.92;;;8.30;88.20;;;;;;5016214;28;20021;-91
2020/12/14 05:35:53;;;;;;;3.53;2.40;;;8.40;88.20;;;;;;5016404;28;20037;-90
2020/12/14 05:38:27;;;;;;;3.03;2.20;;;8.40;88.30;;;;;;5020510;28;20041;-88
2020/12/14 05:40:55;;;;;;;4.40;2.50;;;8.30;88.20;;;;;;5000230;28;20024;-90
2020/12/14 05:43:24;;;;;;;2.80;2.05;;;8.30;88.20;;;;;;5012527;28;20068;-89
2020/12/14 05:45:51;;;;;;;2.72;2.33;;;8.30;88.20;;;;;;5019206;28;20069;-90
2020/12/14 05:48:31;;;;;;;3.33;2.00;;;8.40;88.30;;;;;;5018096;28;20014;-90
2020/12/14 05:51:00;;;;;;;3.22;2.40;;;8.40;88.30;;;;;;5029920;28;20026;-87
2020/12/14 05:53:33;;;;;;;5.15;2.10;;;8.30;88.40;;;;;;4987505;28;20040;-88
2020/12/14 05:56:01;;;;;;;4.28;2.70;;;8.30;88.60;;;;;;5012229;28;20044;-88
2020/12/14 05:58:29;;;;;;;2.83;2.00;;;8.30;88.50;;;;;;4993722;28;20084;-88
2020/12/14 06:00:55;;;;;;;3.60;2.08;;;8.30;88.70;;;;;;4996663;28;20048;-89
2020/12/14 06:03:25;;;;;;;2.83;2.00;;;8.30;88.60;;;;;;4979833;28;20026;-86
2020/12/14 06:06:01;;;;;;;3.75;1.83;;;8.30;88.80;;;;;;4994696;28;20030;-89
2020/12/14 06:08:45;;;;;;;3.80;2.50;;;8.30;88.50;;;;;;4996187;28;20032;-88
2020/12/14 06:11:26;;;;;;;3.72;2.05;;;8.30;88.50;;;;;;4999627;28;20029;-89
2020/12/14 06:14:10;;;;;;;5.75;2.80;;;8.40;88.60;;;;;;4999902;28;20026;-89
2020/12/14 06:16:37;;;;;;;3.53;1.90;;;8.30;88.60;;;;;;4997437;28;20109;-89
2020/12/14 06:19:03;;;;;;;5.20;2.80;;;8.30;88.40;;;;;;5019081;28;20014;-89
2020/12/14 06:21:55;;;;;;;2.90;2.38;;;8.30;88.50;;;;;;5035433;28;20025;-89
2020/12/14 06:24:23;;;;;;;2.83;1.70;;;8.40;88.50;;;;;;5021491;28;20030;-89
2020/12/14 06:26:49;;;;;;;3.70;1.98;;;8.40;88.40;;;;;;5018275;28;20022;-89
2020/12/14 06:33:30;;;;;;;2.40;1.80;;;8.40;88.40;;;;;;5008962;28;20030;-89
2020/12/14 06:36:49;;;;;;;;;;;;;;;;;;;;;
2020/12/14 06:39:40;;;;;;;4.13;2.70;;;8.40;88.50;;;;;;4970103;28;20038;-88
2020/12/14 06:45:56;;;;;;;;;;;;;;;;;;;;;
2020/12/14 06:48:37;;;;;;;3.35;2.10;;;8.40;88.90;;;;;;5028539;28;20030;-90
2020/12/14 06:51:16;;;;;;;3.30;2.10;;;8.40;88.90;;;;;;5033112;28;20095;-89
2020/12/14 06:57:36;;;;;;;;;;;;;;;;;;;;;
2020/12/14 07:04:00;;;;;;;;;;;;;;;;;;;;;
2020/12/14 07:06:31;;;;;;;3.20;2.10;;;8.40;88.90;;;;;;4935840;28;20117;-89
2020/12/14 07:08:57;;;;;;;2.80;2.20;;;8.50;88.90;;;;;;4995727;28;20042;-90
2020/12/14 07:11:24;;;;;;;2.92;1.85;;;8.50;88.90;;;;;;5007307;28;20034;-90
2020/12/14 07:13:52;;;;;;;3.30;2.45;;;8.50;88.90;;;;;;5014763;28;20037;-89
2020/12/14 07:16:27;;;;;;;4.53;3.40;;;8.50;89.00;;;;;;4990832;28;20023;-92
2020/12/14 07:18:53;;;;;;;4.45;2.50;;;8.40;89.10;;;;;;5003964;28;20395;-90
2020/12/14 07:21:20;;;;;;;4.60;2.58;;;8.40;89.40;;;;;;5003987;28;20110;-89
2020/12/14 07:23:52;;;;;;;3.70;2.67;;;8.40;89.50;;;;;;5010499;28;20029;-89
2020/12/14 07:26:17;;;;;;;3.17;2.60;;;8.40;89.60;;;;;;5007467;28;20101;-88
2020/12/14 07:28:52;;;;;;;3.83;2.42;;;8.40;89.70;;;;;;5018636;28;20109;-87
2020/12/14 07:31:21;;;;;;;4.22;2.55;;;8.40;89.80;;;;;;5021247;28;20014;-88
2020/12/14 07:33:55;;;;;;;3.13;2.60;;;8.40;89.90;;;;;;5003290;28;20144;-88
2020/12/14 07:36:24;;;;;;;3.95;2.90;;;8.40;89.90;;;;;;4996504;28;20014;-88
2020/12/14 07:39:07;;;;;;;4.13;2.97;;;8.40;90.00;;;;;;5012234;28;20030;-88
2020/12/14 07:41:33;;;;;;;3.53;2.38;;;8.40;89.90;;;;;;5014603;28;20025;-89
2020/12/14 07:44:00;;;;;;;3.03;2.40;;;8.50;89.70;;;;;;5011529;28;20038;-89
2020/12/14 07:46:52;;;;;;;4.22;2.45;;;8.50;89.60;;;;;;4995952;28;20121;-91
2020/12/14 07:49:23;;;;;;;4.55;2.95;;;8.50;89.60;;;;;;4993723;28;20069;-91
2020/12/14 07:51:51;;;;;;;3.08;2.60;;;8.60;89.50;;;;;;5016854;28;20025;-93
2020/12/14 07:54:20;;;;;;;3.08;2.67;;;8.60;89.40;;;;;;5007430;28;20168;-95
2020/12/14 07:56:57;;;;;;;3.28;2.40;;;8.70;89.40;;;;;;5019966;28;20499;-94
2020/12/14 07:59:54;;;;;;;4.70;3.00;;;8.70;89.40;;;;;;5016132;28;20742;-93
2020/12/14 08:05:10;;;;;;;3.60;2.70;;;8.70;89.50;;;;;;5033041;22;20049;-88
2020/12/14 08:08:04;;;;;;;4.63;3.17;;;8.80;89.50;;;;;;5021972;28;20021;-87
2020/12/14 08:10:31;;;;;;;4.30;3.38;;;8.80;89.30;;;;;;5008450;28;20044;-87
2020/12/14 08:12:59;;;;;;;6.78;4.00;;;8.90;89.30;;;;;;5016406;28;20040;-91
2020/12/14 08:15:28;;;;;;;4.10;2.88;;;8.90;89.30;;;;;;5009238;28;20029;-89
2020/12/14 08:17:54;;;;;;;3.50;3.20;;;8.90;89.30;;;;;;5012943;28;20046;-89
2020/12/14 08:20:43;;;;;;;;;;;;;;;;;;;;;
2020/12/14 08:23:20;;;;;;;3.40;3.10;;;8.90;89.50;;;;;;5004151;28;20041;-92
2020/12/14 08:25:47;;;;;;;4.40;3.08;;;9.00;89.60;;;;;;5015016;28;20040;-88
2020/12/14 08:28:23;;;;;;;;;;;;;;;;;;;;;
2020/12/14 08:30:49;;;;;;;3.40;3.00;;;9.00;89.50;;;;;;5013777;28;20033;-90
2020/12/14 08:33:17;;;;;;;5.13;3.50;;;9.00;89.50;;;;;;5022171;28;20352;-91
2020/12/14 08:35:44;;;;;;;5.18;3.80;;;9.00;89.50;;;;;;4993263;28;20541;-91
2020/12/14 08:38:12;;;;;;;3.10;2.80;;;9.10;89.50;;;;;;5019765;28;20610;-89
2020/12/14 08:40:48;;;;;;;3.40;3.03;;;9.10;89.40;;;;;;4994717;28;20024;-89
2020/12/14 08:43:16;;;;;;;4.55;3.00;;;9.20;89.50;;;;;;4994365;28;20029;-92
2020/12/14 08:45:57;;;;;;;5.22;3.70;;;9.10;89.40;;;;;;4989545;28;20022;-92
2020/12/14 08:48:23;;;;;;;4.22;3.28;;;9.10;89.70;;;;;;5005394;28;20048;-90
2020/12/14 08:50:49;;;;;;;3.05;2.75;;;9.10;89.60;;;;;;4996955;28;20030;-94
2020/12/14 08:53:23;;;;;;;2.70;2.10;;;9.20;89.70;;;;;;4989521;28;20030;-90
2020/12/14 08:55:49;;;;;;;3.83;2.70;;;9.20;89.70;;;;;;4990205;28;20030;-91
2020/12/14 08:58:14;;;;;;;4.25;3.75;;;9.20;89.70;;;;;;4990162;28;20140;-90
2020/12/14 09:00:41;;;;;;;3.08;2.78;;;9.30;89.70;;;;;;4991328;28;20025;-93
2020/12/14 09:03:07;;;;;;;4.32;3.65;;;9.30;89.60;;;;;;4988319;28;20518;-89
2020/12/14 09:05:40;;;;;;;6.15;5.43;;;9.30;89.50;;;;;;4989198;28;20029;-91
2020/12/14 09:08:32;;;;;;;4.00;3.45;;;9.30;89.60;;;;;;5010390;28;20029;-91
2020/12/14 09:10:58;;;;;;;4.07;3.38;;;9.40;89.90;;;;;;5007368;28;20080;-93
2020/12/14 09:13:24;;;;;;;3.92;3.53;;;9.40;89.80;;;;;;5007740;28;20014;-88
2020/12/14 09:16:00;;;;;;;4.10;3.58;;;9.50;90.20;;;;;;5007526;28;20032;-87
2020/12/14 09:18:27;;;;;;;4.82;4.28;;;9.50;90.00;;;;;;5003890;28;20133;-89
2020/12/14 09:21:10;;;;;;;5.10;4.00;;;9.50;90.00;;;;;;4989131;28;20092;-87
2020/12/14 09:23:35;;;;;;;4.38;3.97;;;9.70;90.10;;;;;;4984591;28;20030;-91
2020/12/14 09:26:02;;;;;;;2.60;2.40;;;9.60;90.10;;;;;;5001245;28;20490;-91
2020/12/14 09:28:28;;;;;;;3.53;3.20;;;9.70;90.20;;;;;;4990781;28;20795;-88
2020/12/14 09:30:54;;;;;;;5.30;4.40;;;9.70;90.10;;;;;;4988974;28;20076;-90
2020/12/14 09:33:19;;;;;;;3.38;3.08;;;9.80;90.20;;;;;;4989969;28;20050;-90
2020/12/14 09:35:45;;;;;;;3.50;3.20;;;9.80;90.20;;;;;;5021401;28;20038;-91
2020/12/14 09:38:11;;;;;;;4.47;3.92;;;9.80;90.20;;;;;;4991803;28;20584;-91
2020/12/14 09:40:42;;;;;;;3.53;3.22;;;10.00;90.30;;;;;;5008594;28;20020;-89
2020/12/14 09:43:08;;;;;;;5.78;5.25;;;10.00;90.20;;;;;;4996344;28;20063;-93
2020/12/14 09:45:33;;;;;;;3.40;2.85;;;10.00;90.20;;;;;;5007639;28;20029;-89
2020/12/14 09:48:01;;;;;;;3.15;2.45;;;10.00;90.30;;;;;;5006418;28;20057;-91
2020/12/14 09:50:27;;;;;;;4.00;3.67;;;10.00;90.30;;;;;;4989053;28;20056;-89
2020/12/14 09:52:53;;;;;;;3.53;3.20;;;10.10;90.30;;;;;;4990589;28;20029;-89
2020/12/14 09:55:18;;;;;;;3.67;2.80;;;10.20;90.30;;;;;;4987415;28;20030;-89
2020/12/14 09:57:44;;;;;;;3.45;2.78;;;10.20;90.30;;;;;;4988900;28;20026;-92
2020/12/14 10:00:10;;;;;;;5.18;3.88;;;10.20;90.20;;;;;;5005779;28;20022;-87
2020/12/14 10:02:35;;;;;;;3.42;2.72;;;10.30;90.20;;;;;;5005667;28;20151;-86
2020/12/14 10:05:01;;;;;;;2.90;2.60;;;10.30;90.20;;;;;;4989159;28;20414;-86
2020/12/14 10:07:26;;;;;;;3.90;3.35;;;10.30;90.20;;;;;;5005571;28;20022;-85
2020/12/14 10:09:52;;;;;;;3.17;2.67;;;10.40;90.30;;;;;;5003543;28;20110;-85
2020/12/14 10:12:18;;;;;;;3.25;2.88;;;10.40;90.20;;;;;;4987410;28;20140;-86
2020/12/14 10:14:43;;;;;;;3.08;2.80;;;10.50;90.30;;;;;;4995163;28;20491;-84
2020/12/14 10:17:09;;;;;;;3.78;3.08;;;10.50;90.30;;;;;;5007121;28;20496;-82
2020/12/14 10:19:35;;;;;;;2.85;2.42;;;10.50;90.30;;;;;;5022645;28;20045;-83
2020/12/14 10:22:00;;;;;;;3.78;3.20;;;10.60;90.30;;;;;;5005575;28;20026;-81
2020/12/14 10:24:26;;;;;;;3.28;2.80;;;10.60;90.30;;;;;;5010217;28;20021;-84
2020/12/14 10:26:52;;;;;;;5.40;4.40;;;10.60;90.20;;;;;;5010047;28;20029;-85
2020/12/14 10:29:18;;;;;;;3.38;2.90;;;10.60;90.20;;;;;;5014049;28;20030;-86
2020/12/14 10:31:45;;;;;;;3.10;2.80;;;10.70;90.30;;;;;;5013018;28;20431;-87
2020/12/14 10:34:11;;;;;;;4.97;4.35;;;10.70;90.30;;;;;;5012666;28;20029;-89
2020/12/14 10:36:37;;;;;;;2.35;2.15;;;10.70;90.30;;;;;;5018495;28;20022;-90
2020/12/14 10:39:03;;;;;;;3.78;2.65;;;10.70;90.20;;;;;;5014970;28;20042;-89
2020/12/14 10:41:32;;;;;;;2.92;2.67;;;10.80;90.20;;;;;;5007725;28;20054;-90
2020/12/14 10:43:57;;;;;;;2.90;2.60;;;10.90;90.20;;;;;;5021799;28;20097;-89
2020/12/14 10:46:24;;;;;;;2.42;2.05;;;10.90;90.10;;;;;;5013525;28;20045;-91
2020/12/14 10:48:50;;;;;;;3.17;2.70;;;11.00;90.10;;;;;;4998397;28;20038;-88
2020/12/14 10:51:18;;;;;;;4.60;3.72;;;11.00;90.00;;;;;;4994629;28;20026;-90
2020/12/14 10:53:44;;;;;;;2.70;2.50;;;11.00;90.00;;;;;;5005835;28;20033;-91
2020/12/14 10:56:10;;;;;;;3.70;2.70;;;11.00;90.00;;;;;;4995520;28;20022;-91
2020/12/14 10:58:35;;;;;;;3.13;2.63;;;11.00;90.00;;;;;;5000191;28;20112;-88
2020/12/14 11:01:01;;;;;;;3.03;2.40;;;11.00;90.00;;;;;;5006864;28;20529;-88
2020/12/14 11:03:27;;;;;;;2.70;2.30;;;11.10;90.00;;;;;;5010404;28;20732;-88
2020/12/14 11:05:53;;;;;;;3.70;3.22;;;11.10;89.90;;;;;;5007062;28;20562;-88
2020/12/14 11:08:19;;;;;;;2.90;2.60;;;11.10;89.80;;;;;;4990666;28;20024;-89
2020/12/14 11:10:45;;;;;;;3.50;2.60;;;11.10;89.80;;;;;;4989693;28;20038;-89
2020/12/14 11:13:11;;;;;;;5.35;3.70;;;11.10;89.70;;;;;;5008863;28;20030;-88
2020/12/14 11:15:36;;;;;;;3.67;2.58;;;11.10;89.70;;;;;;4991896;28;22131;-89
2020/12/14 11:18:02;;;;;;;3.80;3.38;;;11.10;89.60;;;;;;4991864;28;20069;-89
2020/12/14 11:20:27;;;;;;;5.53;4.20;;;11.10;89.60;;;;;;4990655;28;20168;-88
2020/12/14 11:22:54;;;;;;;3.00;2.70;;;11.10;89.70;;;;;;4991792;28;20407;-89
2020/12/14 11:25:20;;;;;;;2.95;2.55;;;11.10;89.70;;;;;;5009826;28;20029;-89
2020/12/14 11:27:45;;;;;;;3.50;3.00;;;11.20;89.80;;;;;;5024601;28;20033;-88
2020/12/14 11:30:11;;;;;;;3.58;3.20;;;11.20;89.70;;;;;;4992067;28;20014;-89
2020/12/14 11:32:37;;;;;;;5.05;3.40;;;11.20;89.60;;;;;;4992120;28;20034;-89
2020/12/14 11:35:04;;;;;;;4.65;3.30;;;11.20;89.60;;;;;;5012090;28;20146;-88
2020/12/14 11:37:29;;;;;;;5.05;3.95;;;11.20;89.50;;;;;;4994531;28;20084;-88
2020/12/14 11:39:55;;;;;;;3.92;3.63;;;11.20;89.50;;;;;;5013809;28;20431;-89
2020/12/14 11:42:21;;;;;;;2.95;2.40;;;11.20;90.00;;;;;;4995422;28;20056;-89
2020/12/14 11:44:46;;;;;;;3.10;2.45;;;11.20;89.40;;;;;;4988228;28;20026;-88
2020/12/14 11:47:12;;;;;;;3.35;2.95;;;11.30;89.30;;;;;;5011743;28;20026;-88
2020/12/14 11:49:38;;;;;;;2.88;2.10;;;11.30;89.20;;;;;;5003955;28;20060;-88
2020/12/14 11:52:07;;;;;;;2.90;2.70;;;11.30;89.20;;;;;;4999217;28;20073;-89
2020/12/14 11:54:33;;;;;;;4.18;3.50;;;11.30;89.10;;;;;;5016723;28;20027;-88
2020/12/14 11:57:00;;;;;;;4.70;2.83;;;11.30;89.00;;;;;;5026945;28;20057;-92
2020/12/14 11:59:26;;;;;;;3.13;2.53;;;11.30;89.00;;;;;;5003370;28;20112;-87
2020/12/14 12:01:54;;;;;;;3.10;2.38;;;11.30;89.00;;;;;;5025311;28;20062;-90
2020/12/14 12:04:19;;;;;;;3.55;3.22;;;11.30;89.00;;;;;;5016570;28;20033;-91
2020/12/14 12:06:45;;;;;;;4.55;4.15;;;11.30;88.90;;;;;;5016028;28;20497;-91
2020/12/14 12:09:11;;;;;;;3.70;3.40;;;11.30;88.90;;;;;;4995285;28;20427;-89
2020/12/14 12:11:37;;;;;;;4.22;3.83;;;11.30;88.80;;;;;;4995282;28;20025;-85
2020/12/14 12:14:03;;;;;;;5.25;4.30;;;11.30;88.90;;;;;;5012865;28;20025;-87
2020/12/14 12:16:28;;;;;;;7.15;2.70;;;11.30;88.80;;;;;;5014465;28;20056;-86
2020/12/14 12:18:54;;;;;;;3.50;3.20;;;11.30;88.70;;;;;;4999024;28;20026;-88
2020/12/14 12:21:22;;;;;;;4.10;3.70;;;11.30;88.60;;;;;;5018978;28;20026;-86
2020/12/14 12:23:47;;;;;;;5.22;3.65;;;11.40;88.60;;;;;;5036164;28;20025;-88
2020/12/14 12:26:13;;;;;;;3.58;3.28;;;11.40;88.50;;;;;;5038647;28;20082;-87
2020/12/14 12:28:39;;;;;;;3.42;3.08;;;11.50;88.40;;;;;;5030518;28;20029;-88
2020/12/14 12:31:05;;;;;;;5.43;3.55;;;11.40;88.30;;;;;;5044630;28;20357;-88
2020/12/14 12:33:31;;;;;;;3.00;2.53;;;11.50;88.10;;;;;;5026683;28;20095;-90
2020/12/14 12:35:57;;;;;;;4.80;3.35;;;11.50;88.10;;;;;;5002422;28;20124;-90
2020/12/14 12:38:23;;;;;;;4.32;3.40;;;11.50;87.90;;;;;;5022872;28;20018;-92
2020/12/14 12:40:48;;;;;;;4.18;2.60;;;11.50;87.80;;;;;;5014532;28;20044;-91
2020/12/14 12:43:14;;;;;;;2.88;2.60;;;11.60;87.80;;;;;;5015665;28;20018;-91
2020/12/14 12:45:40;;;;;;;2.42;2.22;;;11.60;87.60;;;;;;5032960;28;20014;-92
2020/12/14 12:48:06;;;;;;;2.70;2.50;;;11.80;87.60;;;;;;5006193;28;20114;-93
2020/12/14 12:50:35;;;;;;;2.97;2.72;;;11.90;87.20;;;;;;5011851;28;20025;-89
2020/12/14 12:53:01;;;;;;;5.15;3.30;;;11.80;86.90;;;;;;4993525;28;20022;-93
2020/12/14 12:55:26;;;;;;;3.58;2.42;;;11.80;86.80;;;;;;4999426;28;20037;-94
2020/12/14 12:57:52;;;;;;;4.22;2.55;;;11.80;86.80;;;;;;4975522;28;20038;-91
2020/12/14 13:00:17;;;;;;;4.05;2.58;;;11.90;86.70;;;;;;5011172;28;20053;-91
2020/12/14 13:02:43;;;;;;;4.50;2.80;;;11.80;86.70;;;;;;5017656;28;20072;-90
2020/12/14 13:05:09;;;;;;;3.25;2.25;;;11.80;86.50;;;;;;5011531;28;20030;-92
2020/12/14 13:07:35;;;;;;;2.40;2.13;;;11.80;86.50;;;;;;4990920;28;20030;-95
2020/12/14 13:10:00;;;;;;;3.25;2.22;;;11.90;86.50;;;;;;5025545;28;20010;-93
2020/12/14 13:12:27;;;;;;;4.82;3.17;;;11.90;86.30;;;;;;5010082;28;20056;-93
2020/12/14 13:14:53;;;;;;;4.13;2.90;;;11.90;86.10;;;;;;5001038;28;20055;-90
2020/12/14 13:17:18;;;;;;;2.35;2.15;;;11.90;86.00;;;;;;5019106;28;20033;-93
2020/12/14 13:19:44;;;;;;;3.05;2.72;;;11.90;86.00;;;;;;5015165;28;20028;-91
2020/12/14 13:22:11;;;;;;;3.20;2.28;;;11.90;85.60;;;;;;5007405;28;20018;-91